Time;durP1;ratioP1;P1;durP2;ratioP2;P2;SDS_P1;SDS_P2;PMS_P1;PMS_P2;Temp;Humidity;BMP_temperature;BMP_pressure;BME280_temperature;BME280_humidity;BME280_pressure;Samples;Min_cycle;Max_cycle;Signal;HPM_P1;HPM_P2
2022/11/29 00:00:25;;;;;;;;;;;7.00;99.90;;;;;;6128952;23;19908;-79
2022/11/29 00:02:53;;;;;;;;;;;7.00;99.90;;;;;;6127912;23;20426;-79
2022/11/29 00:05:19;;;;;;;;;;;6.90;57.30;;;;;;6128576;23;20235;-79
2022/11/29 00:07:44;;;;;;;;;;;6.80;97.60;;;;;;6128380;23;19976;-80
2022/11/29 00:10:10;;;;;;;;;;;6.70;99.90;;;;;;6128465;23;19931;-79
2022/11/29 00:12:36;;;;;;;;;;;6.60;99.90;;;;;;6128302;23;20370;-79
2022/11/29 00:15:01;;;;;;;;;;;6.50;99.90;;;;;;6128583;23;19901;-79
2022/11/29 00:17:27;;;;;;;;;;;6.60;99.90;;;;;;6128243;23;20342;-80
2022/11/29 00:19:52;;;;;;;;;;;6.60;99.90;;;;;;6128199;23;19900;-79
2022/11/29 00:22:18;;;;;;;;;;;6.60;99.90;;;;;;6128295;23;19905;-80
2022/11/29 00:24:43;;;;;;;;;;;6.60;99.90;;;;;;6128113;23;19905;-79
2022/11/29 00:27:09;;;;;;;;;;;6.50;99.90;;;;;;6128429;23;19960;-81
2022/11/29 00:29:35;;;;;;;;;;;6.60;99.90;;;;;;6128145;23;19908;-79
2022/11/29 00:32:00;;;;;;;;;;;6.50;99.90;;;;;;6128207;23;20374;-80
2022/11/29 00:34:26;;;;;;;;;;;6.40;99.90;;;;;;6128045;23;19901;-80
2022/11/29 00:36:52;;;;;;;;;;;6.40;1.00;;;;;;6128021;23;19907;-80
2022/11/29 00:39:18;;;;;;;;;;;6.50;1.00;;;;;;6101995;23;19900;-79
2022/11/29 00:41:43;;;;;;;;;;;6.50;1.00;;;;;;6128153;23;19971;-80
2022/11/29 00:44:09;;;;;;;;;;;6.40;1.00;;;;;;6128016;23;19905;-80
2022/11/29 00:46:35;;;;;;;;;;;6.50;1.00;;;;;;6127968;23;20287;-80
2022/11/29 00:49:00;;;;;;;;;;;6.40;1.00;;;;;;6128536;23;19909;-81
2022/11/29 00:51:26;;;;;;;;;;;6.30;1.00;;;;;;6127873;23;19908;-79
2022/11/29 00:53:51;;;;;;;;;;;6.30;1.00;;;;;;6127893;23;19983;-78
2022/11/29 00:56:17;;;;;;;;;;;6.40;1.00;;;;;;6127970;23;19901;-79
2022/11/29 00:58:44;;;;;;;;;;;6.40;1.00;;;;;;6102369;23;19928;-79
2022/11/29 01:01:10;;;;;;;;;;;6.40;1.00;;;;;;6127599;23;19909;-80
2022/11/29 01:03:36;;;;;;;;;;;6.30;1.00;;;;;;6128217;23;19907;-78
2022/11/29 01:06:05;;;;;;;;;;;6.30;1.00;;;;;;6127887;23;20240;-79
2022/11/29 01:08:31;;;;;;;;;;;6.40;1.00;;;;;;6127804;23;19901;-76
2022/11/29 01:11:01;;;;;;;;;;;6.40;1.00;;;;;;6127714;23;19908;-79
2022/11/29 01:13:27;;;;;;;;;;;6.40;1.00;;;;;;6128288;23;19900;-78
2022/11/29 01:15:56;;;;;;;;;;;6.40;1.00;;;;;;6127643;23;19901;-77
2022/11/29 01:18:21;;;;;;;;;;;6.40;1.00;;;;;;6101719;23;19932;-80
2022/11/29 01:20:54;;;;;;;;;;;6.40;1.00;;;;;;6127644;23;19908;-80
2022/11/29 01:23:20;;;;;;;;;;;6.40;1.00;;;;;;6127692;23;19912;-80
2022/11/29 01:25:54;;;;;;;;;;;6.40;1.00;;;;;;6127461;23;19905;-79
2022/11/29 01:28:19;;;;;;;;;;;6.30;1.00;;;;;;6128009;23;19901;-79
2022/11/29 01:30:45;;;;;;;;;;;6.30;1.00;;;;;;6127498;23;19901;-79
2022/11/29 01:33:10;;;;;;;;;;;6.30;1.00;;;;;;6127599;23;19979;-80
2022/11/29 01:35:36;;;;;;;;;;;6.40;1.00;;;;;;6127505;23;19900;-79
2022/11/29 01:38:02;;;;;;;;;;;6.50;1.00;;;;;;6127494;23;20234;-80
2022/11/29 01:40:28;;;;;;;;;;;6.50;1.00;;;;;;6127927;23;19954;-80
2022/11/29 01:42:53;;;;;;;;;;;6.60;1.00;;;;;;6127696;23;19907;-80
2022/11/29 01:45:23;;;;;;;;;;;6.50;1.00;;;;;;6127490;23;19988;-78
2022/11/29 01:47:50;;;;;;;;;;;6.50;1.00;;;;;;6127357;23;19908;-80
2022/11/29 01:50:16;;;;;;;;;;;6.50;1.00;;;;;;6127370;23;19908;-80
2022/11/29 01:52:41;;;;;;;;;;;6.50;1.00;;;;;;6127375;23;19901;-80
2022/11/29 01:55:08;;;;;;;;;;;6.50;99.90;;;;;;6127389;23;19908;-80
2022/11/29 01:57:35;;;;;;;;;;;6.50;99.90;;;;;;6127864;23;19948;-80
2022/11/29 02:00:07;;;;;;;;;;;6.50;99.90;;;;;;6127514;23;19901;-80
2022/11/29 02:02:35;;;;;;;;;;;6.50;1.00;;;;;;6126226;23;20322;-79
2022/11/29 02:05:01;;;;;;;;;;;6.50;1.00;;;;;;6127138;23;20323;-79
2022/11/29 02:07:27;;;;;;;;;;;6.50;1.00;;;;;;6127185;23;20350;-80
2022/11/29 02:09:53;;;;;;;;;;;6.50;1.00;;;;;;6127157;23;19901;-81
2022/11/29 02:12:21;;;;;;;;;;;6.50;99.90;;;;;;6127231;23;19900;-80
2022/11/29 02:14:50;;;;;;;;;;;6.60;99.90;;;;;;6127150;23;19905;-81
2022/11/29 02:17:34;;;;;;;;;;;6.60;99.90;;;;;;6127266;23;19900;-80
2022/11/29 02:20:05;;;;;;;;;;;6.70;99.90;;;;;;6127077;23;20009;-80
2022/11/29 02:22:39;;;;;;;;;;;6.80;99.90;;;;;;6127342;23;19925;-77
2022/11/29 02:25:05;;;;;;;;;;;7.00;99.90;;;;;;6127023;23;19905;-79
2022/11/29 02:27:49;;;;;;;;;;;7.00;99.90;;;;;;6101089;23;19947;-78
2022/11/29 02:30:41;;;;;;;;;;;7.00;99.90;;;;;;6127259;23;20292;-80
2022/11/29 02:33:16;;;;;;;;;;;7.00;99.90;;;;;;6127344;23;19903;-78
2022/11/29 02:36:09;;;;;;;;;;;6.80;99.90;;;;;;6126945;23;20209;-79
2022/11/29 02:38:54;;;;;;;;;;;6.60;99.90;;;;;;6127201;23;19901;-78
2022/11/29 02:41:25;;;;;;;;;;;6.70;99.90;;;;;;6126917;23;19900;-80
2022/11/29 02:44:06;;;;;;;;;;;6.70;99.90;;;;;;6127104;23;19995;-79
2022/11/29 02:46:31;;;;;;;;;;;6.80;99.90;;;;;;6127310;23;19908;-80
2022/11/29 02:49:17;;;;;;;;;;;6.60;99.90;;;;;;6127063;23;19904;-78
2022/11/29 02:51:49;;;;;;;;;;;6.40;99.90;;;;;;6127108;23;19948;-79
2022/11/29 02:54:20;;;;;;;;;;;6.50;99.90;;;;;;6127165;23;20342;-79
2022/11/29 02:56:57;;;;;;;;;;;6.60;99.90;;;;;;6127113;23;19901;-78
2022/11/29 02:59:35;;;;;;;;;;;6.70;99.90;;;;;;6127335;23;19901;-80
2022/11/29 03:02:03;;;;;;;;;;;6.70;99.90;;;;;;6126599;23;20336;-79
2022/11/29 03:04:58;;;;;;;;;;;6.70;99.90;;;;;;6126997;23;19995;-78
2022/11/29 03:07:35;;;;;;;;;;;6.80;99.90;;;;;;6048455;23;19902;-80
2022/11/29 03:10:07;;;;;;;;;;;6.80;99.90;;;;;;6126900;23;20267;-79
2022/11/29 03:12:38;;;;;;;;;;;6.80;99.90;;;;;;6127065;23;19901;-78
2022/11/29 03:15:06;;;;;;;;;;;6.80;99.90;;;;;;6128425;23;19901;-76
2022/11/29 03:17:35;;;;;;;;;;;6.90;99.90;;;;;;6128810;23;20292;-78
2022/11/29 03:20:18;;;;;;;;;;;6.90;99.90;;;;;;6128769;23;20346;-79
2022/11/29 03:22:50;;;;;;;;;;;7.00;99.90;;;;;;6128996;23;19956;-78
2022/11/29 03:25:24;;;;;;;;;;;6.80;99.90;;;;;;6128716;23;19996;-79
2022/11/29 03:27:57;;;;;;;;;;;6.90;99.90;;;;;;6128744;23;20338;-77
2022/11/29 03:30:22;;;;;;;;;;;6.90;99.90;;;;;;6128900;23;20239;-79
2022/11/29 03:32:53;;;;;;;;;;;6.90;99.90;;;;;;6128842;23;19908;-78
2022/11/29 03:35:31;;;;;;;;;;;6.90;99.90;;;;;;6128890;23;19908;-80
2022/11/29 03:37:59;;;;;;;;;;;6.80;99.90;;;;;;6102642;23;19908;-78
2022/11/29 03:40:28;;;;;;;;;;;6.80;99.90;;;;;;6128551;23;19900;-79
2022/11/29 03:42:58;;;;;;;;;;;7.00;99.90;;;;;;6128713;23;20342;-79
2022/11/29 03:45:28;;;;;;;;;;;7.10;99.90;;;;;;6128614;23;19912;-79
2022/11/29 03:48:15;;;;;;;;;;;7.20;99.90;;;;;;6128518;23;19984;-78
2022/11/29 03:50:44;;;;;;;;;;;7.00;99.90;;;;;;6128854;23;19995;-79
2022/11/29 03:53:18;;;;;;;;;;;6.80;99.90;;;;;;6128444;23;19908;-79
2022/11/29 03:55:49;;;;;;;;;;;6.80;99.90;;;;;;6128427;23;20024;-78
2022/11/29 03:58:29;;;;;;;;;;;7.00;99.90;;;;;;6129165;23;19908;-79
2022/11/29 04:01:05;;;;;;;;;;;7.10;99.90;;;;;;6128150;23;19901;-79
2022/11/29 04:03:37;;;;;;;;;;;7.00;99.90;;;;;;6128251;23;19905;-79
2022/11/29 04:06:05;;;;;;;;;;;6.60;99.90;;;;;;6128362;23;19900;-77
2022/11/29 04:08:37;;;;;;;;;;;6.50;99.90;;;;;;6102368;23;19904;-78
2022/11/29 04:11:02;;;;;;;;;;;6.50;99.90;;;;;;6128383;23;19901;-78
2022/11/29 04:13:34;;;;;;;;;;;6.40;99.90;;;;;;6128311;23;20236;-79
2022/11/29 04:16:09;;;;;;;;;;;6.40;99.90;;;;;;6128321;23;19912;-78
2022/11/29 04:18:53;;;;;;;;;;;6.30;99.90;;;;;;6128238;23;19900;-78
2022/11/29 04:21:27;;;;;;;;;;;6.30;99.90;;;;;;6128228;23;19900;-79
2022/11/29 04:24:12;;;;;;;;;;;6.30;99.90;;;;;;6128396;23;20312;-77
2022/11/29 04:26:49;;;;;;;;;;;6.30;99.90;;;;;;6128314;23;19901;-79
2022/11/29 04:29:22;;;;;;;;;;;6.40;99.90;;;;;;6128152;23;19901;-80
2022/11/29 04:32:06;;;;;;;;;;;6.30;99.90;;;;;;6128387;23;19932;-80
2022/11/29 04:34:44;;;;;;;;;;;6.30;99.90;;;;;;6128243;23;19972;-79
2022/11/29 04:37:17;;;;;;;;;;;6.40;99.90;;;;;;6128164;23;20236;-78
2022/11/29 04:39:42;;;;;;;;;;;6.50;99.90;;;;;;6128385;23;19909;-78
2022/11/29 04:42:11;;;;;;;;;;;6.70;99.90;;;;;;6128029;23;19979;-78
2022/11/29 04:44:39;;;;;;;;;;;6.70;99.90;;;;;;6127946;23;20252;-78
2022/11/29 04:47:10;;;;;;;;;;;6.60;99.90;;;;;;6128063;23;19951;-79
2022/11/29 04:50:08;;;;;;;;;;;6.40;99.90;;;;;;6127959;23;19908;-78
2022/11/29 04:52:34;;;;;;;;;;;6.40;99.90;;;;;;6078962;23;19923;-79
2022/11/29 04:55:27;;;;;;;;;;;6.50;99.90;;;;;;6128072;23;20327;-78
2022/11/29 04:58:11;;;;;;;;;;;6.50;99.90;;;;;;6127722;23;20362;-78
2022/11/29 05:00:41;;;;;;;;;;;6.50;99.90;;;;;;6127818;23;19905;-78
2022/11/29 05:03:13;;;;;;;;;;;6.60;99.90;;;;;;6098639;23;19921;-80
2022/11/29 05:05:59;;;;;;;;;;;6.70;99.90;;;;;;6098457;23;20336;-78
2022/11/29 05:08:47;;;;;;;;;;;6.70;99.90;;;;;;6098766;23;19901;-77
2022/11/29 05:11:17;;;;;;;;;;;6.80;99.90;;;;;;6098686;23;20341;-79
2022/11/29 05:13:43;;;;;;;;;;;6.90;99.90;;;;;;6098527;23;19929;-78
2022/11/29 05:16:22;;;;;;;;;;;6.80;99.90;;;;;;6098324;23;19905;-79
2022/11/29 05:18:56;;;;;;;;;;;6.70;99.90;;;;;;6098647;23;19972;-80
2022/11/29 05:21:35;;;;;;;;;;;6.80;99.90;;;;;;6098522;23;19913;-80
2022/11/29 05:24:10;;;;;;;;;;;6.90;99.90;;;;;;6072315;23;20324;-80
2022/11/29 05:26:42;;;;;;;;;;;6.90;99.90;;;;;;6098262;23;19953;-78
2022/11/29 05:29:15;;;;;;;;;;;7.00;99.90;;;;;;6098454;23;19901;-80
2022/11/29 05:31:40;;;;;;;;;;;7.00;99.90;;;;;;6098151;23;19984;-79
2022/11/29 05:34:20;;;;;;;;;;;7.10;99.90;;;;;;6098440;23;19937;-79
2022/11/29 05:37:01;;;;;;;;;;;7.00;99.90;;;;;;6097935;23;19909;-79
2022/11/29 05:39:35;;;;;;;;;;;6.80;99.90;;;;;;6098420;23;19901;-79
2022/11/29 05:42:23;;;;;;;;;;;7.00;99.90;;;;;;6098826;23;19912;-79
2022/11/29 05:44:49;;;;;;;;;;;7.10;99.90;;;;;;6098018;23;19905;-78
2022/11/29 05:47:20;;;;;;;;;;;7.00;99.90;;;;;;6098089;23;19901;-79
2022/11/29 05:50:12;;;;;;;;;;;6.90;99.90;;;;;;6098182;23;20367;-79
2022/11/29 05:52:46;;;;;;;;;;;7.00;1.00;;;;;;6093443;23;20320;-78
2022/11/29 05:55:20;;;;;;;;;;;7.00;99.90;;;;;;6098156;23;19901;-79
2022/11/29 05:57:48;;;;;;;;;;;6.80;99.90;;;;;;6097863;23;19901;-78
2022/11/29 06:00:16;;;;;;;;;;;6.90;1.00;;;;;;6097901;23;20033;-79
2022/11/29 06:02:58;;;;;;;;;;;6.80;1.00;;;;;;6121906;23;19913;-78
2022/11/29 06:05:32;;;;;;;;;;;6.70;1.00;;;;;;6127123;23;20331;-79
2022/11/29 06:08:12;;;;;;;;;;;6.60;1.00;;;;;;6127177;23;19932;-79
2022/11/29 06:10:39;;;;;;;;;;;6.80;1.00;;;;;;6127433;23;19905;-78
2022/11/29 06:13:07;;;;;;;;;;;7.00;1.00;;;;;;6127044;23;20237;-77
2022/11/29 06:15:32;;;;;;;;;;;7.10;1.00;;;;;;6127034;23;20221;-79
2022/11/29 06:18:01;;;;;;;;;;;7.20;1.00;;;;;;6100796;23;19908;-78
2022/11/29 06:20:39;;;;;;;;;;;7.30;1.00;;;;;;6127063;23;19908;-79
2022/11/29 06:23:27;;;;;;;;;;;7.30;99.90;;;;;;6127117;23;19923;-79
2022/11/29 06:26:24;;;;;;;;;;;7.20;99.90;;;;;;6100771;23;19912;-77
2022/11/29 06:29:08;;;;;;;;;;;7.10;99.90;;;;;;6107979;23;19901;-79
2022/11/29 06:31:37;;;;;;;;;;;6.90;99.90;;;;;;6127950;23;20320;-79
2022/11/29 06:34:06;;;;;;;;;;;6.90;99.90;;;;;;6127194;23;19908;-79
2022/11/29 06:36:38;;;;;;;;;;;6.90;99.90;;;;;;6127006;23;19901;-78
2022/11/29 06:39:04;;;;;;;;;;;7.00;99.90;;;;;;6127115;23;19948;-78
2022/11/29 06:41:30;;;;;;;;;;;7.00;99.90;;;;;;6126976;23;19905;-80
2022/11/29 06:43:55;;;;;;;;;;;7.20;99.90;;;;;;6127531;23;19904;-77
2022/11/29 06:46:27;;;;;;;;;;;7.30;99.90;;;;;;6126801;23;20312;-79
2022/11/29 06:48:59;;;;;;;;;;;7.20;99.90;;;;;;6126833;23;19901;-80
2022/11/29 06:51:43;;;;;;;;;;;7.20;99.90;;;;;;6126191;23;20277;-76
2022/11/29 06:54:24;;;;;;;;;;;7.30;99.90;;;;;;6099667;23;20232;-78
2022/11/29 06:57:08;;;;;;;;;;;7.30;99.90;;;;;;6126314;23;20024;-77
2022/11/29 06:59:37;;;;;;;;;;;7.20;99.90;;;;;;6100330;23;19996;-78
2022/11/29 07:02:11;;;;;;;;;;;7.30;99.90;;;;;;6099874;23;19917;-78
2022/11/29 07:04:48;;;;;;;;;;;7.40;99.90;;;;;;6126462;23;19911;-76
2022/11/29 07:07:17;;;;;;;;;;;7.30;99.90;;;;;;6126839;23;19908;-79
2022/11/29 07:09:45;;;;;;;;;;;7.40;99.90;;;;;;6127063;23;19939;-77
2022/11/29 07:12:11;;;;;;;;;;;7.50;99.90;;;;;;6126745;23;19904;-78
2022/11/29 07:14:36;;;;;;;;;;;7.60;99.90;;;;;;6126932;23;19935;-79
2022/11/29 07:17:19;;;;;;;;;;;7.60;99.90;;;;;;6126775;23;19955;-79
2022/11/29 07:19:50;;;;;;;;;;;7.60;99.90;;;;;;6127139;23;19900;-78
2022/11/29 07:22:30;;;;;;;;;;;7.60;99.90;;;;;;6100769;23;19901;-78
2022/11/29 07:25:07;;;;;;;;;;;7.50;99.90;;;;;;6126711;23;19904;-77
2022/11/29 07:27:48;;;;;;;;;;;7.30;99.90;;;;;;6126920;23;20323;-78
2022/11/29 07:30:17;;;;;;;;;;;7.40;99.90;;;;;;6126877;23;19901;-78
2022/11/29 07:32:52;;;;;;;;;;;7.60;99.90;;;;;;6126666;23;19908;-79
2022/11/29 07:35:26;;;;;;;;;;;7.60;99.90;;;;;;6126443;23;19975;-78
2022/11/29 07:37:56;;;;;;;;;;;7.70;99.90;;;;;;6126727;23;19932;-79
2022/11/29 07:40:30;;;;;;;;;;;7.60;99.90;;;;;;6126832;23;19901;-78
2022/11/29 07:43:13;;;;;;;;;;;7.40;99.90;;;;;;6127311;23;19904;-79
2022/11/29 07:45:39;;;;;;;;;;;7.30;99.90;;;;;;6126759;23;19941;-78
2022/11/29 07:48:05;;;;;;;;;;;7.40;99.90;;;;;;6126802;23;19908;-79
2022/11/29 07:50:31;;;;;;;;;;;7.50;99.90;;;;;;6126812;23;19908;-79
2022/11/29 07:52:58;;;;;;;;;;;7.50;99.90;;;;;;6125857;23;19901;-78
2022/11/29 07:55:24;;;;;;;;;;;7.60;99.90;;;;;;6126615;23;19901;-78
2022/11/29 07:57:50;;;;;;;;;;;7.50;99.90;;;;;;6126761;23;19909;-77
2022/11/29 08:00:17;;;;;;;;;;;7.30;99.90;;;;;;6126200;23;20390;-79
2022/11/29 08:02:43;;;;;;;;;;;7.20;99.90;;;;;;6125967;23;19992;-77
2022/11/29 08:05:08;;;;;;;;;;;7.10;99.90;;;;;;6127514;23;19955;-78
2022/11/29 08:07:35;;;;;;;;;;;7.00;99.90;;;;;;6128069;23;19908;-79
2022/11/29 08:10:01;;;;;;;;;;;7.00;99.90;;;;;;6129000;23;20304;-77
2022/11/29 08:12:27;;;;;;;;;;;7.00;99.90;;;;;;6128726;23;19904;-79
2022/11/29 08:14:52;;;;;;;;;;;7.00;99.90;;;;;;6128978;23;19901;-78
2022/11/29 08:17:18;;;;;;;;;;;7.00;99.90;;;;;;6128275;23;19908;-79
2022/11/29 08:19:44;;;;;;;;;;;7.00;99.90;;;;;;6128442;23;19948;-80
2022/11/29 08:22:10;;;;;;;;;;;7.20;99.90;;;;;;6128263;23;19908;-79
2022/11/29 08:24:36;;;;;;;;;;;7.50;99.90;;;;;;6128137;23;19967;-79
2022/11/29 08:27:02;;;;;;;;;;;7.60;99.90;;;;;;6128837;23;19901;-79
2022/11/29 08:29:27;;;;;;;;;;;8.00;99.90;;;;;;6128127;23;19980;-79
2022/11/29 08:31:53;;;;;;;;;;;9.60;99.90;;;;;;6128265;23;19908;-80
2022/11/29 08:34:20;;;;;;;;;;;10.70;1.00;;;;;;6102174;23;19910;-79
2022/11/29 08:36:46;;;;;;;;;;;10.90;99.90;;;;;;6128098;23;19901;-79
2022/11/29 08:39:12;;;;;;;;;;;11.10;99.90;;;;;;6102219;23;19905;-81
2022/11/29 08:41:37;;;;;;;;;;;11.80;99.90;;;;;;6128198;23;19900;-79
2022/11/29 08:44:03;;;;;;;;;;;11.40;99.90;;;;;;6128535;23;19912;-79
2022/11/29 08:47:34;;;;;;;;;;;10.80;99.90;;;;;;6127958;23;20280;-79
2022/11/29 08:49:14;;;;;;;;;;;10.30;99.90;;;;;;6127593;23;20293;-78
2022/11/29 08:51:40;;;;;;;;;;;10.20;99.90;;;;;;6127949;23;19909;-78
2022/11/29 08:54:06;;;;;;;;;;;10.20;99.90;;;;;;6127920;23;19907;-79
2022/11/29 08:56:31;;;;;;;;;;;9.90;99.90;;;;;;6128433;23;20240;-78
2022/11/29 08:58:57;;;;;;;;;;;10.60;99.90;;;;;;6127910;23;19901;-80
2022/11/29 09:01:23;;;;;;;;;;;9.90;99.90;;;;;;6127567;23;19919;-78
2022/11/29 09:04:05;;;;;;;;;;;10.00;99.90;;;;;;6127800;23;20324;-77
2022/11/29 09:06:32;;;;;;;;;;;9.60;99.90;;;;;;6128172;23;20342;-78
2022/11/29 09:08:59;;;;;;;;;;;9.60;99.90;;;;;;6127867;23;19993;-78
2022/11/29 09:11:25;;;;;;;;;;;9.60;99.90;;;;;;6127283;23;19955;-79
2022/11/29 09:13:52;;;;;;;;;;;9.60;99.90;;;;;;6127863;23;19905;-79
2022/11/29 09:16:19;;;;;;;;;;;9.50;99.90;;;;;;6127702;23;19955;-79
2022/11/29 09:18:47;;;;;;;;;;;9.40;99.90;;;;;;6127515;23;19963;-78
2022/11/29 09:21:13;;;;;;;;;;;9.30;99.90;;;;;;6127656;23;19907;-78
2022/11/29 09:23:40;;;;;;;;;;;9.70;1.00;;;;;;6101561;23;19932;-79
2022/11/29 09:26:07;;;;;;;;;;;10.30;99.90;;;;;;6128163;23;19936;-78
2022/11/29 09:28:33;;;;;;;;;;;10.80;99.90;;;;;;6101498;23;20014;-78
2022/11/29 09:31:05;;;;;;;;;;;10.80;99.90;;;;;;6127583;23;19901;-78
2022/11/29 09:33:31;;;;;;;;;;;11.10;99.90;;;;;;6127547;23;19901;-80
2022/11/29 09:35:57;;;;;;;;;;;14.30;99.90;;;;;;6127832;23;20212;-76
2022/11/29 09:38:23;;;;;;;;;;;17.50;99.90;;;;;;6127759;23;19901;-80
2022/11/29 09:40:52;;;;;;;;;;;19.70;98.40;;;;;;6128037;23;19983;-79
2022/11/29 09:43:26;;;;;;;;;;;21.00;34.80;;;;;;6128061;23;19901;-77
2022/11/29 09:45:56;;;;;;;;;;;21.20;1.00;;;;;;6127417;23;19967;-78
2022/11/29 09:48:40;;;;;;;;;;;21.00;1.00;;;;;;6127416;23;19908;-81
2022/11/29 09:51:21;;;;;;;;;;;21.90;1.00;;;;;;6127340;23;19908;-81
2022/11/29 09:53:46;;;;;;;;;;;22.30;1.00;;;;;;6127498;23;20234;-80
2022/11/29 09:56:12;;;;;;;;;;;22.20;1.00;;;;;;6127401;23;19909;-79
2022/11/29 09:58:45;;;;;;;;;;;22.80;1.00;;;;;;6127177;23;20339;-77
2022/11/29 10:01:16;;;;;;;;;;;23.30;1.00;;;;;;6127452;23;20358;-77
2022/11/29 10:03:43;;;;;;;;;;;23.40;1.00;;;;;;6127464;23;19901;-79
2022/11/29 10:06:20;;;;;;;;;;;22.70;1.00;;;;;;6127351;23;19905;-78
2022/11/29 10:09:00;;;;;;;;;;;22.50;1.00;;;;;;6127509;23;20244;-81
2022/11/29 10:11:29;;;;;;;;;;;23.50;1.00;;;;;;6127408;23;19901;-79
2022/11/29 10:14:02;;;;;;;;;;;24.00;1.00;;;;;;6127337;23;19901;-77
2022/11/29 10:16:48;;;;;;;;;;;24.50;1.00;;;;;;6127266;23;19925;-79
2022/11/29 10:19:14;;;;;;;;;;;25.10;1.00;;;;;;6126715;23;19933;-79
2022/11/29 10:21:42;;;;;;;;;;;25.50;1.00;;;;;;6127352;23;19901;-76
2022/11/29 10:24:10;;;;;;;;;;;25.50;1.00;;;;;;6127477;23;19908;-76
2022/11/29 10:26:36;;;;;;;;;;;25.50;1.00;;;;;;6127314;23;19935;-76
2022/11/29 10:29:01;;;;;;;;;;;26.20;1.00;;;;;;6127632;23;19901;-77
2022/11/29 10:31:41;;;;;;;;;;;27.00;1.00;;;;;;6127202;23;19991;-78
2022/11/29 10:34:14;;;;;;;;;;;27.50;1.00;;;;;;6127689;23;19901;-79
2022/11/29 10:36:42;;;;;;;;;;;26.90;1.00;;;;;;6127651;23;20295;-77
2022/11/29 10:39:36;;;;;;;;;;;27.00;1.00;;;;;;6127694;23;19948;-77
2022/11/29 10:42:02;;;;;;;;;;;25.80;1.00;;;;;;6123901;23;19924;-79
2022/11/29 10:44:30;;;;;;;;;;;26.00;1.00;;;;;;6127953;23;19933;-77
2022/11/29 10:46:56;;;;;;;;;;;23.70;1.00;;;;;;6128543;23;19908;-76
2022/11/29 10:49:25;;;;;;;;;;;22.60;1.00;;;;;;6127912;23;19901;-77
2022/11/29 10:51:51;;;;;;;;;;;22.30;1.00;;;;;;6127891;23;19900;-79
2022/11/29 10:54:32;;;;;;;;;;;21.50;1.00;;;;;;6127655;23;19932;-78
2022/11/29 10:56:58;;;;;;;;;;;21.20;1.00;;;;;;6127442;23;20286;-78
2022/11/29 10:59:27;;;;;;;;;;;19.40;1.00;;;;;;6127116;23;19900;-79
2022/11/29 11:01:53;;;;;;;;;;;18.00;1.00;;;;;;6126782;23;19936;-78
2022/11/29 11:04:27;;;;;;;;;;;17.70;1.00;;;;;;6126850;23;20271;-81
2022/11/29 11:06:55;;;;;;;;;;;18.10;2.00;;;;;;6127596;23;19908;-79
2022/11/29 11:09:25;;;;;;;;;;;17.80;1.00;;;;;;6127289;23;19943;-78
2022/11/29 11:11:52;;;;;;;;;;;18.30;6.10;;;;;;6127294;23;19905;-79
2022/11/29 11:14:27;;;;;;;;;;;19.60;1.00;;;;;;6127672;23;20320;-80
2022/11/29 11:16:53;;;;;;;;;;;20.70;1.00;;;;;;6127294;23;19924;-78
2022/11/29 11:19:32;;;;;;;;;;;21.00;1.00;;;;;;6127836;23;19901;-78
2022/11/29 11:21:59;;;;;;;;;;;20.60;1.00;;;;;;6127189;23;19984;-81
2022/11/29 11:24:31;;;;;;;;;;;19.50;1.00;;;;;;6126888;23;19905;-79
2022/11/29 11:26:57;;;;;;;;;;;19.70;1.00;;;;;;6126824;23;19901;-81
2022/11/29 11:29:34;;;;;;;;;;;19.90;1.00;;;;;;6101008;23;20319;-79
2022/11/29 11:31:59;;;;;;;;;;;20.10;1.00;;;;;;6127137;23;19901;-80
2022/11/29 11:34:32;;;;;;;;;;;20.30;1.00;;;;;;6127068;23;19908;-79
2022/11/29 11:37:13;;;;;;;;;;;19.50;1.00;;;;;;6102781;23;19901;-78
2022/11/29 11:39:40;;;;;;;;;;;19.40;1.00;;;;;;6128979;23;20400;-80
2022/11/29 11:44:54;;;;;;;;;;;20.00;1.00;;;;;;6126616;23;20247;-80
2022/11/29 11:47:27;;;;;;;;;;;20.10;1.00;;;;;;6117409;23;19905;-81
2022/11/29 11:49:54;;;;;;;;;;;20.40;1.00;;;;;;6101424;23;19901;-77
2022/11/29 11:52:24;;;;;;;;;;;21.90;1.00;;;;;;6128602;23;19928;-78
2022/11/29 11:54:54;;;;;;;;;;;22.70;1.00;;;;;;6128575;23;20342;-80
2022/11/29 11:57:21;;;;;;;;;;;22.50;1.00;;;;;;6128794;23;19900;-80
2022/11/29 11:59:47;;;;;;;;;;;22.20;1.00;;;;;;6128417;23;19907;-79
2022/11/29 12:02:25;;;;;;;;;;;21.50;1.00;;;;;;6128305;23;19960;-80
2022/11/29 12:04:53;;;;;;;;;;;21.70;1.00;;;;;;6128487;23;19909;-80
2022/11/29 12:07:39;;;;;;;;;;;22.50;1.00;;;;;;6128778;23;20300;-79
2022/11/29 12:10:10;;;;;;;;;;;22.10;1.00;;;;;;6128013;23;19929;-79
2022/11/29 12:12:39;;;;;;;;;;;21.90;1.00;;;;;;6128655;23;19904;-76
2022/11/29 12:15:17;;;;;;;;;;;21.90;1.00;;;;;;6128640;23;20316;-81
2022/11/29 12:17:51;;;;;;;;;;;22.10;1.00;;;;;;6128673;23;20243;-78
2022/11/29 12:20:30;;;;;;;;;;;24.00;1.00;;;;;;6129124;23;19901;-78
2022/11/29 12:23:06;;;;;;;;;;;25.80;1.00;;;;;;6128945;23;19908;-76
2022/11/29 12:25:34;;;;;;;;;;;24.80;1.00;;;;;;6128371;23;19987;-79
2022/11/29 12:28:00;;;;;;;;;;;23.10;1.00;;;;;;6128465;23;19901;-80
2022/11/29 12:30:25;;;;;;;;;;;22.20;1.00;;;;;;6128245;23;19901;-79
2022/11/29 12:33:00;;;;;;;;;;;21.80;1.00;;;;;;6128079;23;20330;-83
2022/11/29 12:35:33;;;;;;;;;;;21.50;1.00;;;;;;6128057;23;19983;-81
2022/11/29 12:38:14;;;;;;;;;;;23.10;1.00;;;;;;6127533;23;19901;-81
2022/11/29 12:40:53;;;;;;;;;;;25.00;1.00;;;;;;6127868;23;19901;-82
2022/11/29 12:43:32;;;;;;;;;;;26.10;1.00;;;;;;6128934;23;19901;-82
2022/11/29 12:46:00;;;;;;;;;;;26.90;1.00;;;;;;6128236;23;19905;-79
2022/11/29 12:48:25;;;;;;;;;;;26.30;1.00;;;;;;6127986;23;19932;-83
2022/11/29 12:50:51;;;;;;;;;;;24.00;1.00;;;;;;6127999;23;19901;-80
2022/11/29 12:53:16;;;;;;;;;;;22.00;1.00;;;;;;6128027;23;19900;-81
2022/11/29 12:56:09;;;;;;;;;;;20.80;1.00;;;;;;6127927;23;19979;-80
2022/11/29 12:58:38;;;;;;;;;;;19.80;1.00;;;;;;6094685;23;19904;-79
2022/11/29 13:01:09;;;;;;;;;;;19.70;1.00;;;;;;6127638;23;19909;-80
2022/11/29 13:03:50;;;;;;;;;;;19.90;1.00;;;;;;6128111;23;19928;-79
2022/11/29 13:06:15;;;;;;;;;;;19.00;1.00;;;;;;6101619;23;19905;-82
2022/11/29 13:08:53;;;;;;;;;;;18.10;1.00;;;;;;6127801;23;19908;-79
2022/11/29 13:11:25;;;;;;;;;;;18.20;1.00;;;;;;6127768;23;19983;-79
2022/11/29 13:13:56;;;;;;;;;;;18.20;1.00;;;;;;6127916;23;20335;-80
2022/11/29 13:16:31;;;;;;;;;;;18.20;1.00;;;;;;6101422;23;19901;-81
2022/11/29 13:19:02;;;;;;;;;;;18.20;1.00;;;;;;6127727;23;19952;-79
2022/11/29 13:21:35;;;;;;;;;;;18.00;1.00;;;;;;6127894;23;19976;-81
2022/11/29 13:24:08;;;;;;;;;;;18.00;1.00;;;;;;6127946;23;19904;-81
2022/11/29 13:26:33;;;;;;;;;;;17.90;1.00;;;;;;6127614;23;19931;-81
2022/11/29 13:29:00;;;;;;;;;;;17.40;1.00;;;;;;6127573;23;19901;-79
2022/11/29 13:31:26;;;;;;;;;;;17.20;1.00;;;;;;6127608;23;19900;-79
2022/11/29 13:33:54;;;;;;;;;;;17.40;1.00;;;;;;6127999;23;20346;-80
2022/11/29 13:36:23;;;;;;;;;;;17.60;1.00;;;;;;6127662;23;19928;-80
2022/11/29 13:38:56;;;;;;;;;;;17.70;1.00;;;;;;6127680;23;19901;-81
2022/11/29 13:41:30;;;;;;;;;;;17.70;1.00;;;;;;6127542;23;19901;-79
2022/11/29 13:44:03;;;;;;;;;;;17.20;1.00;;;;;;6128312;23;19901;-79
2022/11/29 13:46:39;;;;;;;;;;;17.10;1.00;;;;;;6127901;23;19901;-81
2022/11/29 13:49:18;;;;;;;;;;;16.60;1.00;;;;;;6127545;23;20023;-80
2022/11/29 13:51:44;;;;;;;;;;;16.20;18.10;;;;;;6127425;23;20312;-79
2022/11/29 13:54:29;;;;;;;;;;;16.30;19.90;;;;;;6127589;23;20284;-79
2022/11/29 13:57:05;;;;;;;;;;;15.80;44.50;;;;;;6127259;23;19901;-80
2022/11/29 13:59:32;;;;;;;;;;;17.50;42.40;;;;;;6127107;23;20255;-80
2022/11/29 14:01:58;;;;;;;;;;;20.60;1.60;;;;;;6127318;23;20239;-80
2022/11/29 14:04:23;;;;;;;;;;;24.00;1.00;;;;;;6127174;23;19928;-80
2022/11/29 14:06:59;;;;;;;;;;;25.40;1.00;;;;;;6127425;23;19901;-79
2022/11/29 14:09:26;;;;;;;;;;;25.40;1.00;;;;;;6127281;23;20312;-80
2022/11/29 14:12:17;;;;;;;;;;;24.10;1.00;;;;;;6127163;23;19984;-81
2022/11/29 14:15:06;;;;;;;;;;;23.10;1.00;;;;;;6127698;23;19901;-81
2022/11/29 14:17:33;;;;;;;;;;;22.50;1.00;;;;;;6115072;23;19910;-79
2022/11/29 14:20:17;;;;;;;;;;;24.30;1.00;;;;;;6127151;23;19952;-81
2022/11/29 14:23:03;;;;;;;;;;;25.70;1.00;;;;;;6127495;23;20328;-81
2022/11/29 14:25:55;;;;;;;;;;;27.40;1.00;;;;;;6111419;23;20316;-80
2022/11/29 14:28:21;;;;;;;;;;;27.70;1.00;;;;;;6093337;23;19905;-80
2022/11/29 14:30:46;;;;;;;;;;;28.40;1.00;;;;;;6127227;23;19980;-80
2022/11/29 14:33:12;;;;;;;;;;;28.70;1.00;;;;;;6126993;23;19908;-80
2022/11/29 14:35:56;;;;;;;;;;;27.20;1.00;;;;;;6127012;23;20212;-79
2022/11/29 14:38:32;;;;;;;;;;;26.50;1.00;;;;;;6126978;23;20378;-80
2022/11/29 14:41:01;;;;;;;;;;;25.70;1.00;;;;;;6127300;23;19980;-81
2022/11/29 14:43:37;;;;;;;;;;;25.40;1.00;;;;;;6127895;23;19901;-79
2022/11/29 14:46:07;;;;;;;;;;;25.90;1.00;;;;;;6126979;23;19904;-81
2022/11/29 14:48:33;;;;;;;;;;;25.60;1.00;;;;;;6126917;23;19901;-80
2022/11/29 14:51:12;;;;;;;;;;;26.10;1.00;;;;;;6127157;23;19907;-79
2022/11/29 14:53:38;;;;;;;;;;;25.70;1.00;;;;;;6126944;23;19901;-81
2022/11/29 14:56:22;;;;;;;;;;;26.10;1.00;;;;;;6126883;23;19936;-81
2022/11/29 14:59:08;;;;;;;;;;;25.70;1.00;;;;;;6126824;23;20282;-79